Time;durP1;ratioP1;P1;durP2;ratioP2;P2;SDS_P1;SDS_P2;PMS_P1;PMS_P2;Temp;Humidity;BMP_temperature;BMP_pressure;BME280_temperature;BME280_humidity;BME280_pressure;Samples;Min_cycle;Max_cycle;Signal;HPM_P1;HPM_P2
2023/07/31 00:02:13;;;;;;;;;;;;;;;26.70;37.35;99449.22;6154274;23;19916;-51
2023/07/31 00:04:38;;;;;;;;;;;;;;;26.72;37.33;99444.19;6154809;23;19919;-55
2023/07/31 00:07:06;;;;;;;;;;;;;;;26.75;37.36;99448.25;6155115;23;19909;-53
2023/07/31 00:09:31;;;;;;;;;;;;;;;26.37;37.47;99391.09;6154550;23;20215;-51
2023/07/31 00:11:56;;;;;;;;;;;;;;;26.77;37.30;99446.78;6154552;23;19919;-54
2023/07/31 00:14:21;;;;;;;;;;;;;;;26.80;37.35;99448.91;6154571;23;19908;-51
2023/07/31 00:16:47;;;;;;;;;;;;;;;26.68;37.40;99459.75;6155211;23;20033;-51
2023/07/31 00:19:12;;;;;;;;;;;;;;;26.81;37.41;99456.00;6154763;23;19936;-53
2023/07/31 00:21:37;;;;;;;;;;;;;;;26.82;37.50;99452.13;6154819;23;19912;-55
2023/07/31 00:24:03;;;;;;;;;;;;;;;26.77;37.48;99457.81;6154464;23;19909;-53
2023/07/31 00:26:28;;;;;;;;;;;;;;;26.78;37.59;99451.19;6154923;23;20517;-51
2023/07/31 00:28:53;;;;;;;;;;;;;;;26.80;37.57;99454.41;6154830;23;19912;-52
2023/07/31 00:31:18;;;;;;;;;;;;;;;26.86;37.29;99455.03;6154874;23;19909;-54
2023/07/31 00:33:44;;;;;;;;;;;;;;;26.76;37.52;99456.19;6154800;23;20274;-53
2023/07/31 00:36:09;;;;;;;;;;;;;;;26.65;37.63;99452.16;6154593;23;19916;-54
2023/07/31 00:38:34;;;;;;;;;;;;;;;26.75;37.69;99451.03;6155316;23;19909;-51
2023/07/31 00:41:00;;;;;;;;;;;;;;;26.73;37.41;99440.31;6154784;23;19944;-54
2023/07/31 00:43:25;;;;;;;;;;;;;;;26.67;37.38;99449.06;6154825;23;20167;-52
2023/07/31 00:45:50;;;;;;;;;;;;;;;26.70;37.48;99451.97;6154652;23;19913;-54
2023/07/31 00:48:15;;;;;;;;;;;;;;;26.60;37.47;99441.31;6153390;23;19909;-53
2023/07/31 00:50:41;;;;;;;;;;;;;;;26.56;37.89;99452.16;6154818;23;19915;-51
2023/07/31 00:53:06;;;;;;;;;;;;;;;26.54;37.90;99456.34;6154762;23;20126;-55
2023/07/31 00:55:31;;;;;;;;;;;;;;;26.35;37.76;99449.22;6154867;23;19908;-54
2023/07/31 00:57:57;;;;;;;;;;;;;;;26.33;37.86;99448.75;6154780;23;19912;-53
2023/07/31 01:00:22;;;;;;;;;;;;;;;26.47;37.64;99445.84;6129077;23;19963;-54
2023/07/31 01:02:51;;;;;;;;;;;;;;;26.44;37.87;99443.72;6154725;23;19923;-53
2023/07/31 01:05:21;;;;;;;;;;;;;;;26.31;38.07;99434.50;6154718;23;19987;-50
2023/07/31 01:07:51;;;;;;;;;;;;;;;26.18;38.12;99439.03;6154877;23;19935;-55
2023/07/31 01:10:21;;;;;;;;;;;;;;;26.27;38.01;99434.34;6154833;23;19940;-54
2023/07/31 01:12:47;;;;;;;;;;;;;;;26.26;38.20;99434.66;6154951;23;20250;-53
2023/07/31 01:15:14;;;;;;;;;;;;;;;26.31;37.83;99426.22;6154648;23;19909;-51
2023/07/31 01:17:40;;;;;;;;;;;;;;;26.34;37.78;99433.84;6154705;23;20319;-53
2023/07/31 01:20:08;;;;;;;;;;;;;;;26.39;37.83;99433.69;6155063;23;19909;-54
2023/07/31 01:22:46;;;;;;;;;;;;;;;26.41;37.90;99433.34;6154765;23;19913;-51
2023/07/31 01:25:20;;;;;;;;;;;;;;;26.38;38.01;99437.56;6156862;23;19909;-50
2023/07/31 01:27:57;;;;;;;;;;;;;;;26.37;38.19;99438.69;6156612;23;20303;-53
2023/07/31 01:30:25;;;;;;;;;;;;;;;26.38;38.01;99431.25;6156809;23;19955;-50
2023/07/31 01:32:52;;;;;;;;;;;;;;;26.36;37.83;99434.34;6156433;23;19915;-52
2023/07/31 01:35:18;;;;;;;;;;;;;;;26.25;38.12;99442.09;6156699;23;19932;-52
2023/07/31 01:37:43;;;;;;;;;;;;;;;26.18;38.14;99438.22;6156331;23;20336;-51
2023/07/31 01:40:08;;;;;;;;;;;;;;;26.17;38.36;99442.94;6130291;23;19908;-53
2023/07/31 01:42:35;;;;;;;;;;;;;;;26.19;38.43;99445.38;6156314;23;19924;-50
2023/07/31 01:45:00;;;;;;;;;;;;;;;26.18;38.17;99444.53;6156599;23;19908;-50
2023/07/31 01:47:25;;;;;;;;;;;;;;;26.15;38.16;99444.38;6155534;23;19912;-53
2023/07/31 01:49:51;;;;;;;;;;;;;;;26.18;38.05;99440.97;6156396;23;19908;-55
2023/07/31 01:52:16;;;;;;;;;;;;;;;26.31;38.22;99442.75;6156371;23;19912;-50
2023/07/31 01:54:41;;;;;;;;;;;;;;;26.29;37.93;99438.72;6156133;23;19987;-50
2023/07/31 01:57:06;;;;;;;;;;;;;;;26.34;38.02;99438.56;6130153;23;19913;-50
2023/07/31 01:59:32;;;;;;;;;;;;;;;26.40;37.59;99440.81;6156226;23;20223;-52
2023/07/31 02:01:57;;;;;;;;;;;;;;;26.31;37.88;99441.94;6155804;23;19967;-52
2023/07/31 02:04:22;;;;;;;;;;;;;;;26.32;37.81;99443.56;6105926;23;19920;-51
2023/07/31 02:06:48;;;;;;;;;;;;;;;26.32;37.82;99446.31;6156029;23;20330;-54
2023/07/31 02:09:13;;;;;;;;;;;;;;;26.37;37.71;99444.19;6156127;23;19917;-51
2023/07/31 02:11:38;;;;;;;;;;;;;;;26.30;37.66;99446.66;6156059;23;20357;-51
2023/07/31 02:14:04;;;;;;;;;;;;;;;26.25;37.79;99442.09;6155862;23;19909;-53
2023/07/31 02:16:29;;;;;;;;;;;;;;;26.17;38.00;99444.84;6156393;23;19916;-52
2023/07/31 02:18:54;;;;;;;;;;;;;;;26.20;37.60;99446.97;6155955;23;20270;-53
2023/07/31 02:21:19;;;;;;;;;;;;;;;26.11;37.67;99443.41;6155981;23;19915;-51
2023/07/31 02:23:45;;;;;;;;;;;;;;;26.13;37.73;99449.38;6156103;23;19912;-53
2023/07/31 02:26:12;;;;;;;;;;;;;;;26.10;38.07;99442.59;6155735;23;19915;-54
2023/07/31 02:28:38;;;;;;;;;;;;;;;26.13;38.04;99444.69;6155738;23;19988;-50
2023/07/31 02:31:03;;;;;;;;;;;;;;;26.13;37.92;99441.13;6129311;23;19912;-52
2023/07/31 02:33:28;;;;;;;;;;;;;;;26.10;38.04;99448.09;6155417;23;19916;-55
2023/07/31 02:35:53;;;;;;;;;;;;;;;26.11;37.94;99444.19;6155380;23;20012;-53
2023/07/31 02:38:19;;;;;;;;;;;;;;;25.78;38.11;99388.78;6155552;23;19908;-51
2023/07/31 02:40:44;;;;;;;;;;;;;;;26.03;37.93;99439.50;6155631;23;19909;-54
2023/07/31 02:43:09;;;;;;;;;;;;;;;26.03;38.20;99443.06;6155180;23;19959;-53
2023/07/31 02:45:35;;;;;;;;;;;;;;;26.07;38.07;99444.03;6155597;23;20394;-55
2023/07/31 02:48:00;;;;;;;;;;;;;;;26.09;38.28;99440.97;6154421;23;20407;-54
2023/07/31 02:50:27;;;;;;;;;;;;;;;26.10;37.90;99447.28;6129305;23;19996;-53
2023/07/31 02:52:53;;;;;;;;;;;;;;;26.13;38.14;99447.44;6129352;23;19909;-53
2023/07/31 02:55:18;;;;;;;;;;;;;;;26.13;38.06;99443.88;6155331;23;19908;-55
2023/07/31 02:57:43;;;;;;;;;;;;;;;26.20;38.12;99458.78;6129094;23;19909;-55
2023/07/31 03:00:09;;;;;;;;;;;;;;;26.22;38.01;99452.94;6155174;23;19908;-52
2023/07/31 03:02:34;;;;;;;;;;;;;;;26.26;38.07;99456.66;6155456;23;19924;-53
2023/07/31 03:05:00;;;;;;;;;;;;;;;26.25;37.84;99446.81;6155508;23;19936;-55
2023/07/31 03:07:25;;;;;;;;;;;;;;;26.23;37.96;99447.13;6155346;23;19940;-52
2023/07/31 03:09:50;;;;;;;;;;;;;;;26.13;38.00;99452.94;6155165;23;20406;-55
2023/07/31 03:12:15;;;;;;;;;;;;;;;26.06;38.33;99449.88;6155511;23;19909;-51
2023/07/31 03:14:41;;;;;;;;;;;;;;;26.03;38.23;99448.56;6129463;23;19971;-54
2023/07/31 03:17:06;;;;;;;;;;;;;;;26.08;37.97;99439.34;6155628;23;19912;-52
2023/07/31 03:19:32;;;;;;;;;;;;;;;26.05;38.01;99445.50;6155420;23;20319;-53
2023/07/31 03:21:57;;;;;;;;;;;;;;;25.98;38.25;99451.47;6155144;23;20243;-54
2023/07/31 03:24:22;;;;;;;;;;;;;;;25.91;38.67;99450.28;6129184;23;19913;-53
2023/07/31 03:26:48;;;;;;;;;;;;;;;25.87;38.52;99444.63;6155389;23;20337;-53
2023/07/31 03:29:13;;;;;;;;;;;;;;;25.83;38.26;99444.44;6155127;23;19908;-53
2023/07/31 03:31:39;;;;;;;;;;;;;;;25.83;38.42;99452.72;6155063;23;19908;-50
2023/07/31 03:34:04;;;;;;;;;;;;;;;25.88;38.25;99449.00;6155713;23;20293;-52
2023/07/31 03:36:29;;;;;;;;;;;;;;;25.82;38.32;99448.34;6155179;23;19940;-54
2023/07/31 03:38:55;;;;;;;;;;;;;;;25.86;38.49;99454.03;6155486;23;19936;-54
2023/07/31 03:41:20;;;;;;;;;;;;;;;25.80;38.60;99450.63;6155442;23;19909;-53
2023/07/31 03:43:46;;;;;;;;;;;;;;;25.71;38.50;99449.78;6128763;23;19913;-53
2023/07/31 03:46:11;;;;;;;;;;;;;;;25.67;38.58;99441.38;6154923;23;19918;-53
2023/07/31 03:48:37;;;;;;;;;;;;;;;25.71;38.59;99443.47;6154146;23;20353;-54
2023/07/31 03:51:02;;;;;;;;;;;;;;;25.68;39.00;99444.91;6128911;23;19916;-52
2023/07/31 03:53:28;;;;;;;;;;;;;;;25.71;38.71;99444.28;6155229;23;20246;-53
2023/07/31 03:55:53;;;;;;;;;;;;;;;25.77;38.80;99447.69;6154980;23;19984;-54
2023/07/31 03:58:18;;;;;;;;;;;;;;;25.72;38.80;99454.13;6155210;23;19909;-54
2023/07/31 04:00:44;;;;;;;;;;;;;;;25.67;38.80;99448.81;6155371;23;19916;-51
2023/07/31 04:03:09;;;;;;;;;;;;;;;25.66;38.30;99452.69;6154925;23;19917;-50
2023/07/31 04:05:38;;;;;;;;;;;;;;;25.63;38.64;99448.63;6155137;23;19909;-54
2023/07/31 04:08:03;;;;;;;;;;;;;;;25.65;38.32;99451.88;6154706;23;19909;-52
2023/07/31 04:10:29;;;;;;;;;;;;;;;25.62;38.48;99457.19;6154913;23;19988;-51
2023/07/31 04:12:55;;;;;;;;;;;;;;;25.62;38.86;99452.50;6154711;23;19909;-53
2023/07/31 04:15:20;;;;;;;;;;;;;;;25.63;38.70;99462.38;6155091;23;20003;-51
2023/07/31 04:17:45;;;;;;;;;;;;;;;25.68;38.89;99450.41;6154813;23;19993;-52
2023/07/31 04:20:10;;;;;;;;;;;;;;;25.77;38.47;99453.19;6154879;23;19909;-54
2023/07/31 04:22:36;;;;;;;;;;;;;;;25.82;38.38;99453.06;6154654;23;19917;-52
2023/07/31 04:25:01;;;;;;;;;;;;;;;25.74;38.65;99449.13;6154882;23;19909;-54
2023/07/31 04:27:26;;;;;;;;;;;;;;;25.79;38.72;99442.69;6154603;23;20295;-54
2023/07/31 04:29:52;;;;;;;;;;;;;;;25.86;38.53;99443.03;6154955;23;19908;-54
2023/07/31 04:32:17;;;;;;;;;;;;;;;25.85;38.12;99444.13;6154723;23;19920;-53
2023/07/31 04:34:42;;;;;;;;;;;;;;;25.84;38.27;99440.59;6154047;23;20260;-50
2023/07/31 04:37:08;;;;;;;;;;;;;;;25.94;38.18;99450.50;6154277;23;19909;-50
2023/07/31 04:39:33;;;;;;;;;;;;;;;26.01;38.14;99442.56;6154778;23;19943;-53
2023/07/31 04:41:58;;;;;;;;;;;;;;;26.07;38.41;99449.53;6128238;23;19909;-53
2023/07/31 04:44:23;;;;;;;;;;;;;;;26.16;38.08;99446.78;6128223;23;20492;-55
2023/07/31 04:46:49;;;;;;;;;;;;;;;26.23;38.10;99444.38;6127885;23;19909;-55
2023/07/31 04:49:14;;;;;;;;;;;;;;;26.24;37.95;99454.25;6154386;23;20619;-49
2023/07/31 04:51:39;;;;;;;;;;;;;;;26.15;37.59;99442.44;6154668;23;19948;-52
2023/07/31 04:54:05;;;;;;;;;;;;;;;25.98;37.72;99445.97;6154733;23;19913;-51
2023/07/31 04:56:30;;;;;;;;;;;;;;;25.97;38.29;99443.56;6154985;23;20241;-54
2023/07/31 04:58:56;;;;;;;;;;;;;;;25.95;38.13;99441.13;6156185;23;19916;-54
2023/07/31 05:01:21;;;;;;;;;;;;;;;25.99;37.68;99444.03;6156435;23;19909;-55
2023/07/31 05:03:46;;;;;;;;;;;;;;;26.05;38.02;99442.75;6156174;23;19920;-51
2023/07/31 05:06:13;;;;;;;;;;;;;;;26.07;37.97;99443.22;6156323;23;20346;-54
2023/07/31 05:08:38;;;;;;;;;;;;;;;26.07;37.77;99449.53;6156172;23;19913;-51
2023/07/31 05:11:04;;;;;;;;;;;;;;;25.98;38.00;99445.97;6156127;23;19992;-52
2023/07/31 05:13:29;;;;;;;;;;;;;;;25.95;37.79;99443.06;6156447;23;19908;-52
2023/07/31 05:15:54;;;;;;;;;;;;;;;26.04;38.03;99452.94;6156512;23;19928;-50
2023/07/31 05:18:19;;;;;;;;;;;;;;;26.21;37.70;99443.09;6156359;23;19912;-50
2023/07/31 05:20:45;;;;;;;;;;;;;;;26.36;37.39;99436.28;6156674;23;19955;-53
2023/07/31 05:23:10;;;;;;;;;;;;;;;26.44;37.37;99446.47;6156762;23;20299;-51
2023/07/31 05:25:35;;;;;;;;;;;;;;;26.38;37.21;99439.53;6157033;23;19928;-53
2023/07/31 05:28:01;;;;;;;;;;;;;;;26.33;37.05;99451.50;6156403;23;19931;-53
2023/07/31 05:30:26;;;;;;;;;;;;;;;26.31;37.30;99445.50;6156459;23;19912;-50
2023/07/31 05:32:52;;;;;;;;;;;;;;;26.32;37.40;99447.13;6156919;23;19908;-54
2023/07/31 05:35:17;;;;;;;;;;;;;;;26.48;37.15;99441.13;6156010;23;19920;-55
2023/07/31 05:37:42;;;;;;;;;;;;;;;26.49;36.71;99445.50;6156175;23;19909;-50
2023/07/31 05:40:07;;;;;;;;;;;;;;;26.24;37.04;99448.75;6156039;23;19909;-52
2023/07/31 05:42:33;;;;;;;;;;;;;;;26.24;36.96;99448.75;6155907;23;19916;-54
2023/07/31 05:44:58;;;;;;;;;;;;;;;26.23;37.17;99449.09;6156537;23;19932;-53
2023/07/31 05:47:23;;;;;;;;;;;;;;;26.14;37.15;99442.75;6155041;23;19936;-54
2023/07/31 05:49:51;;;;;;;;;;;;;;;26.28;37.04;99446.19;6156454;23;19909;-53
2023/07/31 05:52:16;;;;;;;;;;;;;;;26.31;36.81;99444.69;6155947;23;19908;-54
2023/07/31 05:54:42;;;;;;;;;;;;;;;26.34;37.23;99446.81;6156105;23;19948;-53
2023/07/31 05:57:07;;;;;;;;;;;;;;;26.29;36.79;99447.78;6156303;23;19909;-53
2023/07/31 05:59:33;;;;;;;;;;;;;;;26.21;37.24;99454.91;6156239;23;19908;-50
2023/07/31 06:01:58;;;;;;;;;;;;;;;26.34;37.12;99442.13;6155750;23;19917;-56
2023/07/31 06:04:25;;;;;;;;;;;;;;;26.43;37.10;99447.63;6155971;23;19912;-54
2023/07/31 06:06:51;;;;;;;;;;;;;;;26.46;37.02;99438.69;6155634;23;19936;-53
2023/07/31 06:09:16;;;;;;;;;;;;;;;26.72;36.79;99438.69;6155161;23;19916;-54
2023/07/31 06:11:41;;;;;;;;;;;;;;;26.92;36.59;99436.38;6155540;23;19908;-52
2023/07/31 06:14:06;;;;;;;;;;;;;;;27.08;36.58;99431.13;6156066;23;19913;-54
2023/07/31 06:16:32;;;;;;;;;;;;;;;26.92;36.33;99437.19;6155435;23;19908;-55
2023/07/31 06:18:57;;;;;;;;;;;;;;;26.76;36.67;99439.66;6155902;23;19912;-54
2023/07/31 06:21:22;;;;;;;;;;;;;;;26.68;36.75;99434.19;6156011;23;20334;-51
2023/07/31 06:23:47;;;;;;;;;;;;;;;26.73;36.76;99437.56;6156078;23;19919;-54
2023/07/31 06:26:13;;;;;;;;;;;;;;;26.85;36.41;99437.69;6155873;23;19987;-53
2023/07/31 06:28:39;;;;;;;;;;;;;;;26.86;36.33;99438.50;6155311;23;19915;-53
2023/07/31 06:31:07;;;;;;;;;;;;;;;26.92;36.52;99439.94;6155464;23;19917;-52
2023/07/31 06:33:33;;;;;;;;;;;;;;;26.99;35.95;99444.97;6155652;23;19936;-53
2023/07/31 06:35:58;;;;;;;;;;;;;;;26.98;35.96;99448.84;6129424;23;19916;-54
2023/07/31 06:38:25;;;;;;;;;;;;;;;27.15;36.19;99443.25;6155807;23;19908;-54
2023/07/31 06:40:50;;;;;;;;;;;;;;;27.24;36.10;99441.28;6155741;23;19915;-53
2023/07/31 06:43:16;;;;;;;;;;;;;;;27.25;35.88;99436.59;6155592;23;20386;-51
2023/07/31 06:45:41;;;;;;;;;;;;;;;27.28;36.07;99437.91;6155663;23;19909;-51
2023/07/31 06:48:06;;;;;;;;;;;;;;;27.24;35.66;99441.28;6154382;23;19912;-53
2023/07/31 06:50:32;;;;;;;;;;;;;;;27.24;35.77;99449.56;6129384;23;19920;-54
2023/07/31 06:52:57;;;;;;;;;;;;;;;27.14;36.12;99443.63;6155285;23;19967;-54
2023/07/31 06:55:23;;;;;;;;;;;;;;;27.20;35.96;99448.59;6155283;23;20287;-55
2023/07/31 06:57:51;;;;;;;;;;;;;;;27.22;36.36;99457.34;6155246;23;19987;-63
2023/07/31 07:00:16;;;;;;;;;;;;;;;27.31;35.78;99457.34;6127188;23;19908;-64
2023/07/31 07:02:42;;;;;;;;;;;;;;;27.23;35.79;99452.66;6153575;23;19991;-64
2023/07/31 07:05:08;;;;;;;;;;;;;;;27.34;35.77;99453.13;6154311;23;20274;-64
2023/07/31 07:07:33;;;;;;;;;;;;;;;27.24;35.72;99457.03;6102636;23;19908;-64
2023/07/31 07:10:03;;;;;;;;;;;;;;;27.26;35.52;99465.00;6152533;23;20315;-64
2023/07/31 07:12:29;;;;;;;;;;;;;;;27.37;35.86;99464.28;6153736;23;19909;-64
2023/07/31 07:14:54;;;;;;;;;;;;;;;27.32;35.44;99466.44;6102750;23;19908;-64
2023/07/31 07:17:19;;;;;;;;;;;;;;;27.41;35.94;99467.19;6153729;23;19916;-64
2023/07/31 07:19:45;;;;;;;;;;;;;;;27.27;35.48;99463.88;6154405;23;19971;-64
2023/07/31 07:22:11;;;;;;;;;;;;;;;27.23;35.60;99453.47;6154456;23;20372;-63
2023/07/31 07:24:36;;;;;;;;;;;;;;;27.38;35.00;99456.84;6154788;23;19913;-63
2023/07/31 07:27:01;;;;;;;;;;;;;;;27.27;34.67;99459.16;6154554;23;19915;-64
2023/07/31 07:29:26;;;;;;;;;;;;;;;27.51;35.22;99460.53;6154696;23;20550;-63
2023/07/31 07:31:52;;;;;;;;;;;;;;;27.44;34.82;99460.22;6155180;23;19916;-63
2023/07/31 07:34:17;;;;;;;;;;;;;;;27.57;35.42;99456.44;6154951;23;19983;-65
2023/07/31 07:36:42;;;;;;;;;;;;;;;27.55;34.85;99461.47;6155229;23;19912;-63
2023/07/31 07:39:09;;;;;;;;;;;;;;;27.57;34.88;99462.75;6155076;23;20373;-63
2023/07/31 07:41:35;;;;;;;;;;;;;;;27.35;34.47;99465.78;6129006;23;19908;-63
2023/07/31 07:44:00;;;;;;;;;;;;;;;27.33;35.08;99466.09;6155152;23;20414;-63
2023/07/31 07:46:25;;;;;;;;;;;;;;;27.35;34.95;99465.78;6154049;23;20310;-63
2023/07/31 07:48:51;;;;;;;;;;;;;;;27.52;35.01;99459.38;6129187;23;20322;-63
2023/07/31 07:51:16;;;;;;;;;;;;;;;27.51;34.66;99472.34;6154751;23;19990;-63
2023/07/31 07:53:41;;;;;;;;;;;;;;;27.49;34.52;99466.38;6154719;23;20297;-63
2023/07/31 07:56:07;;;;;;;;;;;;;;;27.48;34.49;99473.00;6154496;23;19919;-63
2023/07/31 07:58:32;;;;;;;;;;;;;;;27.65;35.15;99465.81;6155010;23;20059;-64
2023/07/31 08:00:57;;;;;;;;;;;;;;;27.73;34.08;99465.75;6154879;23;19908;-63
2023/07/31 08:03:23;;;;;;;;;;;;;;;27.92;34.34;99464.53;6154725;23;20307;-63
2023/07/31 08:05:51;;;;;;;;;;;;;;;28.10;34.33;99460.53;6154095;23;20287;-63
2023/07/31 08:08:17;;;;;;;;;;;;;;;28.19;33.71;99477.00;6155178;23;19913;-64
2023/07/31 08:10:43;;;;;;;;;;;;;;;28.32;34.25;99475.91;6154976;23;19909;-64
2023/07/31 08:13:09;;;;;;;;;;;;;;;28.35;33.97;99478.00;6154916;23;19932;-64
2023/07/31 08:15:34;;;;;;;;;;;;;;;28.36;33.93;99474.13;6154791;23;20317;-65
2023/07/31 08:18:00;;;;;;;;;;;;;;;28.44;34.24;99479.91;6154709;23;19913;-64
2023/07/31 08:20:26;;;;;;;;;;;;;;;28.50;33.75;99473.84;6128309;23;20274;-64
2023/07/31 08:22:52;;;;;;;;;;;;;;;28.34;33.07;99464.53;6154514;23;19967;-65
2023/07/31 08:25:20;;;;;;;;;;;;;;;28.42;33.52;99473.91;6154545;23;19916;-64
2023/07/31 08:27:45;;;;;;;;;;;;;;;28.64;33.17;99468.06;6154826;23;19909;-64
2023/07/31 08:30:11;;;;;;;;;;;;;;;28.67;32.59;99466.56;6154860;23;19919;-65
2023/07/31 08:32:37;;;;;;;;;;;;;;;28.80;33.54;99464.66;6155019;23;19915;-65
2023/07/31 08:35:02;;;;;;;;;;;;;;;28.70;31.92;99460.38;6157232;23;20008;-64
2023/07/31 08:37:27;;;;;;;;;;;;;;;28.71;32.30;99457.25;6156722;23;20306;-65
2023/07/31 08:39:54;;;;;;;;;;;;;;;28.73;32.30;99459.66;6156923;23;19960;-65
2023/07/31 08:42:19;;;;;;;;;;;;;;;28.83;32.96;99458.47;6156549;23;20299;-65
2023/07/31 08:44:46;;;;;;;;;;;;;;;28.99;33.08;99461.38;6156703;23;19915;-65
2023/07/31 08:47:11;;;;;;;;;;;;;;;29.01;32.46;99461.81;6155899;23;20303;-65
2023/07/31 08:49:38;;;;;;;;;;;;;;;29.01;32.27;99461.81;6156878;23;19913;-63
2023/07/31 08:52:03;;;;;;;;;;;;;;;29.12;32.63;99461.06;6156984;23;20274;-64
2023/07/31 08:54:30;;;;;;;;;;;;;;;29.17;33.02;99462.00;6156264;23;19909;-63
2023/07/31 08:56:57;;;;;;;;;;;;;;;29.17;32.01;99467.53;6156650;23;19908;-64
2023/07/31 08:59:22;;;;;;;;;;;;;;;29.09;32.15;99460.94;6156585;23;19912;-64
2023/07/31 09:01:49;;;;;;;;;;;;;;;29.06;32.46;99453.31;6156626;23;20271;-64
2023/07/31 09:04:16;;;;;;;;;;;;;;;29.13;32.38;99459.09;6156431;23;19999;-64
2023/07/31 09:06:42;;;;;;;;;;;;;;;29.08;32.21;99457.34;6156627;23;20285;-64
2023/07/31 09:09:07;;;;;;;;;;;;;;;29.16;32.53;99466.75;6156752;23;19912;-63
2023/07/31 09:11:32;;;;;;;;;;;;;;;29.06;32.91;99461.63;6130195;23;19908;-64
2023/07/31 09:13:58;;;;;;;;;;;;;;;29.03;32.85;99459.53;6155490;23;19908;-64
2023/07/31 09:16:32;;;;;;;;;;;;;;;29.19;32.48;99456.94;6156344;23;19908;-64
2023/07/31 09:19:01;;;;;;;;;;;;;;;29.18;32.12;99461.69;6156589;23;19908;-64
2023/07/31 09:21:27;;;;;;;;;;;;;;;29.30;31.59;99460.88;6156954;23;19909;-63
2023/07/31 09:23:54;;;;;;;;;;;;;;;29.34;31.35;99468.13;6156336;23;20192;-64
2023/07/31 09:26:32;;;;;;;;;;;;;;;29.32;32.51;99467.66;6156291;23;19991;-64
2023/07/31 09:28:58;;;;;;;;;;;;;;;29.42;31.33;99471.13;6156493;23;19939;-64
2023/07/31 09:31:41;;;;;;;;;;;;;;;29.51;31.33;99475.41;6130196;23;20338;-65
2023/07/31 09:34:06;;;;;;;;;;;;;;;29.49;30.27;99472.19;6155861;23;19929;-64
2023/07/31 09:36:32;;;;;;;;;;;;;;;29.44;30.51;99480.72;6156590;23;19909;-64
2023/07/31 09:39:04;;;;;;;;;;;;;;;29.37;30.98;99472.19;6156207;23;20327;-64
2023/07/31 09:41:30;;;;;;;;;;;;;;;29.39;31.49;99472.63;6156770;23;19908;-64
2023/07/31 09:43:55;;;;;;;;;;;;;;;29.30;31.73;99475.50;6156062;23;19983;-64
2023/07/31 09:46:21;;;;;;;;;;;;;;;29.15;31.46;99471.44;6155233;23;19909;-64
2023/07/31 09:48:47;;;;;;;;;;;;;;;29.30;31.61;99471.94;6156574;23;20188;-64
2023/07/31 09:51:12;;;;;;;;;;;;;;;29.49;31.92;99474.97;6156238;23;20203;-64
2023/07/31 09:53:37;;;;;;;;;;;;;;;29.38;30.49;99479.31;6156302;23;19987;-64
2023/07/31 09:56:03;;;;;;;;;;;;;;;29.50;31.17;99467.47;6156428;23;19908;-64
2023/07/31 09:58:29;;;;;;;;;;;;;;;29.68;31.52;99471.59;6156478;23;19908;-64
2023/07/31 10:00:57;;;;;;;;;;;;;;;29.87;31.44;99473.81;6156120;23;20338;-64
2023/07/31 10:03:22;;;;;;;;;;;;;;;29.84;31.57;99470.94;6155999;23;19917;-64
2023/07/31 10:05:50;;;;;;;;;;;;;;;29.79;31.07;99471.97;6156516;23;19915;-64
2023/07/31 10:08:15;;;;;;;;;;;;;;;29.81;30.02;99471.63;6155778;23;19915;-64
2023/07/31 10:10:42;;;;;;;;;;;;;;;29.56;30.36;99473.56;6156015;23;19909;-64
2023/07/31 10:13:08;;;;;;;;;;;;;;;29.48;30.75;99476.09;6156179;23;19968;-64
2023/07/31 10:15:34;;;;;;;;;;;;;;;29.46;30.50;99469.31;6155836;23;19928;-64
2023/07/31 10:18:00;;;;;;;;;;;;;;;29.36;29.94;99481.63;6129979;23;20290;-64
2023/07/31 10:20:26;;;;;;;;;;;;;;;29.17;30.77;99479.41;6129369;23;19908;-64
2023/07/31 10:22:51;;;;;;;;;;;;;;;28.79;30.65;99480.44;6155311;23;19939;-64
2023/07/31 10:25:18;;;;;;;;;;;;;;;28.48;31.71;99478.09;6129200;23;20327;-64
2023/07/31 10:27:43;;;;;;;;;;;;;;;28.36;31.91;99468.59;6155411;23;19908;-64
2023/07/31 10:30:11;;;;;;;;;;;;;;;28.38;31.96;99460.78;6155879;23;19916;-63
2023/07/31 10:32:37;;;;;;;;;;;;;;;28.41;32.29;99464.00;6129972;23;19916;-63
2023/07/31 10:35:03;;;;;;;;;;;;;;;28.44;32.31;99463.34;6155791;23;19908;-64
2023/07/31 10:37:29;;;;;;;;;;;;;;;28.46;32.71;99461.84;6155776;23;19947;-64
2023/07/31 10:39:59;;;;;;;;;;;;;;;28.68;32.28;99460.72;6155575;23;20398;-64
2023/07/31 10:42:29;;;;;;;;;;;;;;;28.85;32.07;99456.97;6155665;23;19935;-64
2023/07/31 10:44:59;;;;;;;;;;;;;;;28.99;32.03;99459.41;6155721;23;19915;-64
2023/07/31 10:47:24;;;;;;;;;;;;;;;29.21;32.52;99460.16;6155140;23;19909;-65
2023/07/31 10:49:49;;;;;;;;;;;;;;;29.26;32.11;99462.72;6155963;23;20246;-65
2023/07/31 10:52:22;;;;;;;;;;;;;;;29.51;32.63;99461.59;6155557;23;19915;-65
2023/07/31 10:54:47;;;;;;;;;;;;;;;29.84;32.09;99457.09;6155775;23;19948;-65
2023/07/31 10:57:20;;;;;;;;;;;;;;;30.25;31.71;99452.38;6155598;23;19908;-65
2023/07/31 10:59:45;;;;;;;;;;;;;;;30.44;31.74;99457.31;6129621;23;20295;-65
2023/07/31 11:02:24;;;;;;;;;;;;;;;30.61;30.20;99470.03;6155613;23;19977;-64
2023/07/31 11:05:05;;;;;;;;;;;;;;;31.09;30.00;99459.88;6155872;23;19913;-65
2023/07/31 11:07:46;;;;;;;;;;;;;;;31.39;28.83;99460.28;6155542;23;19909;-65
2023/07/31 11:10:16;;;;;;;;;;;;;;;31.47;29.87;99457.66;6155582;23;19908;-64
2023/07/31 11:12:41;;;;;;;;;;;;;;;31.39;27.72;99456.66;6129262;23;19908;-65
2023/07/31 11:15:11;;;;;;;;;;;;;;;31.29;28.21;99455.25;6155514;23;19939;-65
2023/07/31 11:17:40;;;;;;;;;;;;;;;31.00;28.67;99448.97;6155366;23;19971;-65
2023/07/31 11:20:06;;;;;;;;;;;;;;;30.46;28.06;99421.72;6155130;23;19931;-64
2023/07/31 11:22:32;;;;;;;;;;;;;;;30.43;27.28;99459.28;6155098;23;20527;-64
2023/07/31 11:24:57;;;;;;;;;;;;;;;30.16;29.15;99465.56;6155120;23;20042;-64
2023/07/31 11:27:23;;;;;;;;;;;;;;;29.77;29.58;99473.47;6155367;23;19909;-64
2023/07/31 11:29:50;;;;;;;;;;;;;;;29.80;34.89;99478.31;6155223;23;19909;-63
2023/07/31 11:32:17;;;;;;;;;;;;;;;29.39;37.88;99485.66;6129221;23;20064;-63
2023/07/31 11:34:52;;;;;;;;;;;;;;;28.65;38.66;99488.19;6155213;23;19909;-63
2023/07/31 11:37:17;;;;;;;;;;;;;;;27.79;39.39;99499.47;6155566;23;19959;-63
2023/07/31 11:39:43;;;;;;;;;;;;;;;27.26;40.16;99492.56;6155682;23;20266;-63
2023/07/31 11:42:10;;;;;;;;;;;;;;;26.56;41.84;99482.44;6155204;23;19916;-62
2023/07/31 11:44:47;;;;;;;;;;;;;;;25.98;43.33;99478.97;6155104;23;19917;-62
2023/07/31 11:47:12;;;;;;;;;;;;;;;25.49;44.14;99483.69;6128138;23;19944;-62
2023/07/31 11:49:39;;;;;;;;;;;;;;;25.49;43.04;99489.97;6155311;23;19908;-62
2023/07/31 11:52:04;;;;;;;;;;;;;;;25.67;44.11;99487.31;6155139;23;19915;-62
2023/07/31 11:54:29;;;;;;;;;;;;;;;25.62;44.19;99482.75;6154923;23;19914;-63
2023/07/31 11:56:57;;;;;;;;;;;;;;;25.55;43.58;99500.84;6155106;23;19908;-63
2023/07/31 11:59:22;;;;;;;;;;;;;;;25.43;43.65;99490.44;6154843;23;19991;-63
2023/07/31 12:01:53;;;;;;;;;;;;;;;25.41;43.60;99488.03;6154926;23;19999;-63
2023/07/31 12:04:19;;;;;;;;;;;;;;;25.66;43.59;99480.97;6155269;23;19916;-63
2023/07/31 12:06:46;;;;;;;;;;;;;;;26.00;42.99;99484.16;6154969;23;20224;-62
2023/07/31 12:09:14;;;;;;;;;;;;;;;26.19;43.00;99478.38;6154932;23;19984;-63
2023/07/31 12:11:45;;;;;;;;;;;;;;;26.34;42.97;99482.59;6154599;23;19909;-63
2023/07/31 12:14:21;;;;;;;;;;;;;;;26.44;42.94;99474.81;6154658;23;19913;-63
2023/07/31 12:16:47;;;;;;;;;;;;;;;26.49;42.82;99473.06;6154929;23;19916;-63
2023/07/31 12:19:12;;;;;;;;;;;;;;;26.40;42.61;99481.31;6155206;23;19909;-63
2023/07/31 12:21:38;;;;;;;;;;;;;;;26.46;43.40;99480.81;6154561;23;19948;-63
2023/07/31 12:24:03;;;;;;;;;;;;;;;26.62;43.19;99486.66;6154854;23;20063;-63
2023/07/31 12:26:33;;;;;;;;;;;;;;;26.73;43.15;99478.88;6154478;23;20304;-63
2023/07/31 12:28:59;;;;;;;;;;;;;;;26.87;43.13;99483.41;6154116;23;19909;-63
2023/07/31 12:31:27;;;;;;;;;;;;;;;27.06;43.56;99472.00;6128652;23;19915;-63
2023/07/31 12:33:52;;;;;;;;;;;;;;;27.14;42.78;99471.19;6154377;23;19919;-64
2023/07/31 12:36:19;;;;;;;;;;;;;;;27.38;43.02;99465.13;6154447;23;19912;-64
2023/07/31 12:38:45;;;;;;;;;;;;;;;27.58;42.83;99461.63;6154456;23;19908;-64
2023/07/31 12:41:11;;;;;;;;;;;;;;;27.79;42.52;99461.66;6154640;23;19909;-64
2023/07/31 12:43:37;;;;;;;;;;;;;;;27.98;42.54;99457.69;6154940;23;19912;-64